createdAt,value
2023-04-20T00:02:05.344Z,6.32
2023-04-20T00:05:09.501Z,6.35
2023-04-20T00:08:12.199Z,6.31
2023-04-20T00:11:15.032Z,6.35
2023-04-20T00:14:17.816Z,6.39
2023-04-20T00:17:20.686Z,6.42
2023-04-20T00:20:23.813Z,6.42
2023-04-20T00:23:26.742Z,6.41
2023-04-20T00:26:29.566Z,6.35
2023-04-20T00:29:34.371Z,6.40
2023-04-20T00:32:37.046Z,6.31
2023-04-20T00:35:39.806Z,6.30
2023-04-20T00:38:42.617Z,6.24
2023-04-20T00:41:45.346Z,6.24
2023-04-20T00:44:48.122Z,6.22
2023-04-20T00:47:51.928Z,6.20
2023-04-20T00:50:54.908Z,6.13
2023-04-20T00:53:57.924Z,6.15
2023-04-20T00:57:02.797Z,6.19
2023-04-20T01:00:07.756Z,6.17
2023-04-20T01:03:11.323Z,6.18
2023-04-20T01:06:15.056Z,6.13
2023-04-20T01:09:18.000Z,6.10
2023-04-20T01:12:20.930Z,6.11
2023-04-20T01:15:23.632Z,6.13
2023-04-20T01:18:27.300Z,6.14
2023-04-20T01:21:30.003Z,6.16
2023-04-20T01:24:35.302Z,6.14
2023-04-20T01:27:38.078Z,6.16
2023-04-20T01:30:40.832Z,6.19
2023-04-20T01:33:43.654Z,6.27
2023-04-20T01:36:46.299Z,6.19
2023-04-20T01:39:49.117Z,6.16
2023-04-20T01:42:52.035Z,6.16
2023-04-20T01:45:54.723Z,6.16
2023-04-20T01:48:57.344Z,6.24
2023-04-20T01:52:00.003Z,6.23
2023-04-20T01:55:02.616Z,6.24
2023-04-20T01:58:06.011Z,6.26
2023-04-20T02:01:09.485Z,6.28
2023-04-20T02:04:12.514Z,6.31
2023-04-20T02:07:16.391Z,6.35
2023-04-20T02:10:19.387Z,6.41
2023-04-20T02:13:22.381Z,6.38
2023-04-20T02:16:25.212Z,6.38
2023-04-20T02:19:27.983Z,6.39
2023-04-20T02:22:35.131Z,6.38
2023-04-20T02:25:37.631Z,6.30
2023-04-20T02:28:40.526Z,6.39
2023-04-20T02:31:43.346Z,6.41
2023-04-20T02:34:46.498Z,6.39
2023-04-20T02:37:49.110Z,6.36
2023-04-20T02:40:51.720Z,6.42
2023-04-20T02:43:55.207Z,6.39
2023-04-20T02:46:58.012Z,6.38
2023-04-20T02:50:01.724Z,6.33
2023-04-20T02:53:06.584Z,6.37
2023-04-20T02:56:12.172Z,6.39
2023-04-20T02:59:19.686Z,6.39
2023-04-20T03:02:34.878Z,6.43
2023-04-20T03:05:38.251Z,6.39
2023-04-20T03:08:41.395Z,6.39
2023-04-20T03:12:07.392Z,6.35
2023-04-20T03:15:39.471Z,6.42
2023-04-20T03:18:57.816Z,6.40
2023-04-20T03:22:00.626Z,6.35
2023-04-20T03:25:03.364Z,6.32
2023-04-20T03:28:28.963Z,6.28
2023-04-20T03:31:31.798Z,6.35
2023-04-20T03:34:35.044Z,6.35
2023-04-20T03:37:38.427Z,6.39
2023-04-20T03:40:42.290Z,6.33
2023-04-20T03:43:45.214Z,6.37
2023-04-20T03:46:51.420Z,6.38
2023-04-20T03:49:54.336Z,6.37
2023-04-20T03:52:57.109Z,6.33
2023-04-20T03:55:59.957Z,6.33
2023-04-20T03:59:03.145Z,6.38
2023-04-20T04:02:06.337Z,6.37
2023-04-20T04:05:09.615Z,6.46
2023-04-20T04:08:12.680Z,6.48
2023-04-20T04:11:15.708Z,6.53
2023-04-20T04:14:18.546Z,6.58
2023-04-20T04:17:22.272Z,6.53
2023-04-20T04:20:25.262Z,6.51
2023-04-20T04:23:28.814Z,6.56
2023-04-20T04:26:44.725Z,6.58
2023-04-20T04:29:50.506Z,6.60
2023-04-20T04:32:56.329Z,6.65
2023-04-20T04:35:59.266Z,6.67
2023-04-20T04:39:02.507Z,6.77
2023-04-20T04:42:06.266Z,6.75
2023-04-20T04:45:16.862Z,6.87
2023-04-20T04:48:20.147Z,6.89
2023-04-20T04:51:23.004Z,6.99
2023-04-20T04:54:25.874Z,7.08
2023-04-20T04:57:28.713Z,7.12
2023-04-20T05:00:31.796Z,7.21
2023-04-20T05:03:34.789Z,7.23
2023-04-20T05:06:37.599Z,7.28
2023-04-20T05:09:40.527Z,7.36
2023-04-20T05:12:43.370Z,7.57
2023-04-20T05:15:46.142Z,7.54
2023-04-20T05:18:48.748Z,7.58
2023-04-20T05:21:51.602Z,7.60
2023-04-20T05:24:54.373Z,7.66
2023-04-20T05:27:57.076Z,7.69
2023-04-20T05:30:59.715Z,7.81
2023-04-20T05:34:03.252Z,7.88
2023-04-20T05:37:06.668Z,7.88
2023-04-20T05:40:09.919Z,7.90
2023-04-20T05:43:12.646Z,7.92
2023-04-20T05:46:15.428Z,7.86
2023-04-20T05:49:18.448Z,8.01
2023-04-20T05:52:21.385Z,8.01
2023-04-20T05:55:24.134Z,8.08
2023-04-20T05:58:27.559Z,8.21
2023-04-20T06:01:30.373Z,8.57
2023-04-20T06:04:33.386Z,8.57
2023-04-20T06:07:37.009Z,8.99
2023-04-20T06:10:39.779Z,9.29
2023-04-20T06:13:42.406Z,9.71
2023-04-20T06:16:45.306Z,9.92
2023-04-20T06:19:48.222Z,10.23
2023-04-20T06:22:51.203Z,10.23
2023-04-20T06:25:53.940Z,10.43
2023-04-20T06:28:56.773Z,10.22
2023-04-20T06:31:59.581Z,10.43
2023-04-20T06:35:02.309Z,10.60
2023-04-20T06:38:05.090Z,10.60
2023-04-20T06:41:07.820Z,11.01
2023-04-20T06:44:10.776Z,11.25
2023-04-20T06:47:13.537Z,11.23
2023-04-20T06:50:16.518Z,11.30
2023-04-20T06:53:19.444Z,11.30
2023-04-20T06:56:22.362Z,11.42
2023-04-20T06:59:25.221Z,11.72
2023-04-20T07:02:28.360Z,11.92
2023-04-20T07:05:31.191Z,11.66
2023-04-20T07:08:34.348Z,11.92
2023-04-20T07:11:37.056Z,12.07
2023-04-20T07:14:39.796Z,12.20
2023-04-20T07:17:42.608Z,12.53
2023-04-20T07:20:45.348Z,12.80
2023-04-20T07:23:48.604Z,12.67
2023-04-20T07:26:51.912Z,13.04
2023-04-20T07:29:54.827Z,12.76
2023-04-20T07:32:57.814Z,12.87
2023-04-20T07:36:00.542Z,13.01
2023-04-20T07:39:03.488Z,13.04
2023-04-20T07:42:06.134Z,13.29
2023-04-20T07:45:10.623Z,13.20
2023-04-20T07:48:13.587Z,13.51
2023-04-20T07:51:16.319Z,13.37
2023-04-20T07:54:19.305Z,13.83
2023-04-20T07:57:22.409Z,13.65
2023-04-20T08:00:25.446Z,14.06
2023-04-20T08:03:29.376Z,13.92
2023-04-20T08:06:32.284Z,14.14
2023-04-20T08:09:34.980Z,14.30
2023-04-20T08:12:37.762Z,14.36
2023-04-20T08:15:40.476Z,14.42
2023-04-20T08:18:43.322Z,14.51
2023-04-20T08:21:46.083Z,14.42
2023-04-20T08:24:48.784Z,14.55
2023-04-20T08:27:51.447Z,14.76
2023-04-20T08:30:54.113Z,14.90
2023-04-20T08:33:56.928Z,15.08
2023-04-20T08:36:59.694Z,15.21
2023-04-20T08:40:02.393Z,15.47
2023-04-20T08:43:05.005Z,15.37
2023-04-20T08:46:07.924Z,15.70
2023-04-20T08:49:13.185Z,15.69
2023-04-20T08:52:16.080Z,15.76
2023-04-20T08:55:19.504Z,16.39
2023-04-20T08:58:22.660Z,15.98
2023-04-20T09:01:35.263Z,16.21
2023-04-20T09:04:40.209Z,16.12
2023-04-20T09:07:53.548Z,16.33
2023-04-20T09:10:56.464Z,16.24
2023-04-20T09:14:02.341Z,16.17
2023-04-20T09:17:05.532Z,16.44
2023-04-20T09:20:08.918Z,16.55
2023-04-20T09:23:16.648Z,16.50
2023-04-20T09:26:19.702Z,16.47
2023-04-20T09:29:24.430Z,16.96
2023-04-20T09:32:31.186Z,16.87
2023-04-20T09:35:35.131Z,16.90
2023-04-20T09:38:38.162Z,17.09
2023-04-20T09:41:41.818Z,17.27
2023-04-20T09:44:45.008Z,16.89
2023-04-20T09:47:50.110Z,17.10
2023-04-20T09:50:53.124Z,17.32
2023-04-20T09:54:00.378Z,17.29
2023-04-20T09:57:03.791Z,17.50
2023-04-20T10:00:08.283Z,17.92
2023-04-20T10:03:13.056Z,18.23
2023-04-20T10:06:35.338Z,17.68
2023-04-20T10:09:38.154Z,17.76
2023-04-20T10:12:48.285Z,17.89
2023-04-20T10:15:51.156Z,17.92
2023-04-20T10:19:01.252Z,18.33
2023-04-20T10:22:04.550Z,18.37
2023-04-20T10:25:19.888Z,17.94
2023-04-20T10:28:22.718Z,17.94
2023-04-20T10:31:36.463Z,18.11
2023-04-20T10:34:39.778Z,17.96
2023-04-20T10:37:51.135Z,17.36
2023-04-20T10:40:53.968Z,17.34
2023-04-20T10:44:07.931Z,17.31
2023-04-20T10:47:11.623Z,17.42
2023-04-20T10:50:15.978Z,17.94
2023-04-20T10:53:23.063Z,18.13
2023-04-20T10:56:27.114Z,18.27
2023-04-20T10:59:29.834Z,18.55
2023-04-20T11:02:33.024Z,19.23
2023-04-20T11:05:36.136Z,19.70
2023-04-20T11:08:42.261Z,19.55
2023-04-20T11:11:45.073Z,19.14
2023-04-20T11:14:53.666Z,19.73
2023-04-20T11:17:57.004Z,20.47
2023-04-20T11:20:59.976Z,20.32
2023-04-20T11:24:03.394Z,18.92
2023-04-20T11:27:06.114Z,19.60
2023-04-20T11:30:10.187Z,18.57
2023-04-20T11:33:14.321Z,18.66
2023-04-20T11:36:24.624Z,18.32
2023-04-20T11:39:28.764Z,18.31
2023-04-20T11:42:31.569Z,17.96
2023-04-20T11:45:36.171Z,17.98
2023-04-20T11:48:39.725Z,17.85
2023-04-20T11:51:43.648Z,17.91
2023-04-20T11:54:46.821Z,17.94
2023-04-20T11:57:50.490Z,17.76
2023-04-20T12:00:53.263Z,17.75
2023-04-20T12:03:56.457Z,17.88
2023-04-20T12:06:59.843Z,18.10
2023-04-20T12:10:03.242Z,19.19
2023-04-20T12:13:06.697Z,19.90
2023-04-20T12:16:09.660Z,20.47
2023-04-20T12:19:12.808Z,20.06
2023-04-20T12:22:15.787Z,19.65
2023-04-20T12:25:18.662Z,20.28
2023-04-20T12:28:21.635Z,20.22
2023-04-20T12:31:26.660Z,20.45
2023-04-20T12:34:30.751Z,19.99
2023-04-20T12:37:33.618Z,19.73
2023-04-20T12:40:36.437Z,19.73
2023-04-20T12:43:39.238Z,19.38
2023-04-20T12:46:42.744Z,20.54
2023-04-20T12:49:45.583Z,21.18
2023-04-20T12:52:48.441Z,21.15
2023-04-20T12:55:57.877Z,21.59
2023-04-20T12:59:04.057Z,19.81
2023-04-20T13:02:07.044Z,20.04
2023-04-20T13:05:10.586Z,19.97
2023-04-20T13:08:13.240Z,20.04
2023-04-20T13:11:17.738Z,18.91
2023-04-20T13:14:21.086Z,18.81
2023-04-20T13:17:24.462Z,19.09
2023-04-20T13:20:29.753Z,20.07
2023-04-20T13:23:32.688Z,19.84
2023-04-20T13:26:36.859Z,19.77
2023-04-20T13:29:40.546Z,19.39
2023-04-20T13:32:43.305Z,20.33
2023-04-20T13:35:46.654Z,21.05
2023-04-20T13:38:49.878Z,21.53
2023-04-20T13:41:52.726Z,20.42
2023-04-20T13:44:55.757Z,19.48
2023-04-20T13:47:58.685Z,18.69
2023-04-20T13:51:02.034Z,18.54
2023-04-20T13:54:05.033Z,18.27
2023-04-20T13:57:07.971Z,18.43
2023-04-20T14:00:11.154Z,18.34
2023-04-20T14:03:15.854Z,18.30
2023-04-20T14:06:19.148Z,18.38
2023-04-20T14:09:22.685Z,18.28
2023-04-20T14:12:27.242Z,18.44
2023-04-20T14:15:30.541Z,18.67
2023-04-20T14:18:33.249Z,18.73
2023-04-20T14:21:36.396Z,18.77
2023-04-20T14:24:39.283Z,18.78
2023-04-20T14:27:42.045Z,18.68
2023-04-20T14:30:46.379Z,18.23
2023-04-20T14:33:49.302Z,18.28
2023-04-20T14:36:52.213Z,18.11
2023-04-20T14:39:54.955Z,18.36
2023-04-20T14:42:58.353Z,18.54
2023-04-20T14:46:01.318Z,18.44
2023-04-20T14:49:04.345Z,18.02
2023-04-20T14:52:07.465Z,18.07
2023-04-20T14:55:10.496Z,18.33
2023-04-20T14:58:13.377Z,18.68
2023-04-20T15:01:16.431Z,18.84
2023-04-20T15:04:19.678Z,19.28
2023-04-20T15:07:22.724Z,19.45
2023-04-20T15:10:25.796Z,19.33
2023-04-20T15:13:28.484Z,19.22
2023-04-20T15:16:33.007Z,19.60
2023-04-20T15:19:36.433Z,19.13
2023-04-20T15:22:39.535Z,19.09
2023-04-20T15:25:42.569Z,19.28
2023-04-20T15:28:45.628Z,19.12
2023-04-20T15:31:48.536Z,18.87
2023-04-20T15:34:51.850Z,18.99
2023-04-20T15:37:57.452Z,19.23
2023-04-20T15:41:03.520Z,19.58
2023-04-20T15:44:14.385Z,20.14
2023-04-20T15:47:25.789Z,19.32
2023-04-20T15:50:38.849Z,19.17
2023-04-20T15:53:51.873Z,19.33
2023-04-20T15:56:57.769Z,19.09
2023-04-20T16:00:01.605Z,18.73
2023-04-20T16:03:07.889Z,19.25
2023-04-20T16:06:13.525Z,19.13
2023-04-20T16:09:20.795Z,18.64
2023-04-20T16:12:39.834Z,18.43
2023-04-20T16:15:52.800Z,18.52
2023-04-20T16:19:12.549Z,18.18
2023-04-20T16:22:50.978Z,18.24
2023-04-20T16:26:00.710Z,17.91
2023-04-20T16:29:14.470Z,17.83
2023-04-20T16:32:17.625Z,17.88
2023-04-20T16:35:27.178Z,17.67
2023-04-20T16:38:39.649Z,17.78
2023-04-20T16:41:53.560Z,17.59
2023-04-20T16:45:05.079Z,17.61
2023-04-20T16:48:11.089Z,17.45
2023-04-20T16:51:27.600Z,17.51
2023-04-20T16:54:34.601Z,17.39
2023-04-20T16:57:48.947Z,17.42
2023-04-20T17:00:59.841Z,17.14
2023-04-20T17:04:09.764Z,16.45
2023-04-20T17:07:16.381Z,15.83
2023-04-20T17:10:21.509Z,15.56
2023-04-20T17:13:25.363Z,15.26
2023-04-20T17:16:28.449Z,14.80
2023-04-20T17:19:31.913Z,14.79
2023-04-20T17:22:35.988Z,14.56
2023-04-20T17:25:39.119Z,14.49
2023-04-20T17:28:42.085Z,14.73
2023-04-20T17:31:46.012Z,14.83
2023-04-20T17:34:51.772Z,14.99
2023-04-20T17:37:54.983Z,15.02
2023-04-20T17:40:58.002Z,14.92
2023-04-20T17:44:01.097Z,14.88
2023-04-20T17:47:04.283Z,14.91
2023-04-20T17:50:08.213Z,14.88
2023-04-20T17:53:11.008Z,14.78
2023-04-20T17:56:13.917Z,14.80
2023-04-20T17:59:18.255Z,14.72
2023-04-20T18:02:21.390Z,14.78
2023-04-20T18:05:24.571Z,14.86
2023-04-20T18:08:27.586Z,14.94
2023-04-20T18:11:31.132Z,14.85
2023-04-20T18:14:34.291Z,14.79
2023-04-20T18:17:37.712Z,14.77
2023-04-20T18:20:41.092Z,14.79
2023-04-20T18:23:43.880Z,14.70
2023-04-20T18:26:46.910Z,14.77
2023-04-20T18:29:50.593Z,14.68
2023-04-20T18:32:54.202Z,14.73
2023-04-20T18:35:57.050Z,14.67
2023-04-20T18:38:59.861Z,14.62
2023-04-20T18:42:02.999Z,14.69
2023-04-20T18:45:07.308Z,14.64
2023-04-20T18:48:10.517Z,14.49
2023-04-20T18:51:13.678Z,14.41
2023-04-20T18:54:16.963Z,14.49
2023-04-20T18:57:24.296Z,14.50
2023-04-20T19:00:27.141Z,14.57
2023-04-20T19:03:30.186Z,14.54
2023-04-20T19:06:33.242Z,14.51
2023-04-20T19:09:36.192Z,14.50
2023-04-20T19:12:42.474Z,14.48
2023-04-20T19:15:46.160Z,14.42
2023-04-20T19:18:49.738Z,14.31
2023-04-20T19:21:54.265Z,14.19
2023-04-20T19:24:57.103Z,14.11
2023-04-20T19:28:01.507Z,14.08
2023-04-20T19:31:04.561Z,14.04
2023-04-20T19:34:08.443Z,13.96
2023-04-20T19:37:11.912Z,13.98
2023-04-20T19:40:14.988Z,13.99
2023-04-20T19:43:18.065Z,14.08
2023-04-20T19:46:21.904Z,14.05
2023-04-20T19:49:24.826Z,14.01
2023-04-20T19:52:27.697Z,14.01
2023-04-20T19:55:30.547Z,14.00
2023-04-20T19:58:33.386Z,14.05
2023-04-20T20:01:36.317Z,13.93
2023-04-20T20:04:39.656Z,14.02
2023-04-20T20:07:42.801Z,14.01
2023-04-20T20:10:45.657Z,13.95
2023-04-20T20:13:48.878Z,13.94
2023-04-20T20:16:51.802Z,13.86
2023-04-20T20:19:55.918Z,13.80
2023-04-20T20:23:02.050Z,13.85
2023-04-20T20:26:04.841Z,13.73
2023-04-20T20:29:07.710Z,13.68
2023-04-20T20:32:10.746Z,13.65
2023-04-20T20:35:13.597Z,13.59
2023-04-20T20:38:18.603Z,13.56
2023-04-20T20:41:21.431Z,13.55
2023-04-20T20:44:25.824Z,13.44
2023-04-20T20:47:31.111Z,13.38
2023-04-20T20:50:33.891Z,13.34
2023-04-20T20:53:36.648Z,13.26
2023-04-20T20:56:39.412Z,13.23
2023-04-20T20:59:42.088Z,13.19
2023-04-20T21:02:45.113Z,13.18
2023-04-20T21:05:47.849Z,13.22
2023-04-20T21:08:50.906Z,13.22
2023-04-20T21:11:53.837Z,13.18
2023-04-20T21:14:57.456Z,13.13
2023-04-20T21:18:00.296Z,13.10
2023-04-20T21:21:03.345Z,13.21
2023-04-20T21:24:06.237Z,13.28
2023-04-20T21:27:09.103Z,13.30
2023-04-20T21:30:12.468Z,13.18
2023-04-20T21:33:15.724Z,13.14
2023-04-20T21:36:18.528Z,13.10
2023-04-20T21:39:21.510Z,13.05
2023-04-20T21:42:24.219Z,13.03
2023-04-20T21:45:27.171Z,12.99
2023-04-20T21:48:29.908Z,12.93
2023-04-20T21:51:33.302Z,12.92
2023-04-20T21:54:36.296Z,12.94
2023-04-20T21:57:39.015Z,12.94
2023-04-20T22:00:43.861Z,12.97
2023-04-20T22:03:47.909Z,12.94
2023-04-20T22:06:50.995Z,12.93
2023-04-20T22:09:53.681Z,12.85
2023-04-20T22:12:56.612Z,12.82
2023-04-20T22:15:59.411Z,12.72
2023-04-20T22:19:04.876Z,12.64
2023-04-20T22:22:07.665Z,12.57
2023-04-20T22:25:10.598Z,12.54
2023-04-20T22:28:13.789Z,12.50
2023-04-20T22:31:16.806Z,12.49
2023-04-20T22:34:19.562Z,12.60
2023-04-20T22:37:22.302Z,12.61
2023-04-20T22:40:25.274Z,12.54
2023-04-20T22:43:28.082Z,12.44
2023-04-20T22:46:30.743Z,12.36
2023-04-20T22:49:33.634Z,12.38
2023-04-20T22:52:38.742Z,12.39
2023-04-20T22:55:42.113Z,12.38
2023-04-20T22:58:44.838Z,12.26
2023-04-20T23:01:47.515Z,12.18
2023-04-20T23:04:50.717Z,12.15
2023-04-20T23:07:54.293Z,12.11
2023-04-20T23:10:57.151Z,12.05
2023-04-20T23:13:59.869Z,12.03
2023-04-20T23:17:03.262Z,12.08
2023-04-20T23:20:14.269Z,12.11
2023-04-20T23:23:17.096Z,11.98
2023-04-20T23:26:19.907Z,11.88
2023-04-20T23:29:22.615Z,11.90
2023-04-20T23:32:26.232Z,11.81
2023-04-20T23:35:29.253Z,11.83
2023-04-20T23:38:32.012Z,11.85
2023-04-20T23:41:34.783Z,11.80
2023-04-20T23:44:37.650Z,11.87
2023-04-20T23:47:40.368Z,11.80
2023-04-20T23:50:43.092Z,11.79
2023-04-20T23:53:46.003Z,11.71
2023-04-20T23:56:48.886Z,11.65
2023-04-20T23:59:55.327Z,11.61
